createdAt,value
2019-03-31T00:01:07.277Z,37.53
2019-03-31T00:03:24.591Z,35.85
2019-03-31T00:05:53.040Z,38.70
2019-03-31T00:08:21.814Z,39.20
2019-03-31T00:10:50.248Z,37.33
2019-03-31T00:13:18.697Z,37.58
2019-03-31T00:15:47.137Z,39.65
2019-03-31T00:18:15.582Z,39.05
2019-03-31T00:20:44.095Z,39.27
2019-03-31T00:23:12.529Z,39.00
2019-03-31T00:25:42.618Z,40.05
2019-03-31T00:28:11.060Z,41.48
2019-03-31T00:30:39.500Z,40.98
2019-03-31T00:33:07.928Z,40.25
2019-03-31T00:35:36.373Z,40.88
2019-03-31T00:38:04.821Z,42.38
2019-03-31T00:40:33.264Z,41.08
2019-03-31T00:43:01.702Z,43.02
2019-03-31T00:45:30.136Z,40.55
2019-03-31T00:47:58.573Z,42.95
2019-03-31T00:50:27.010Z,43.70
2019-03-31T00:52:55.436Z,44.00
2019-03-31T00:55:23.880Z,45.03
2019-03-31T00:57:52.317Z,42.50
2019-03-31T01:00:29.490Z,44.93
2019-03-31T01:02:59.588Z,43.30
2019-03-31T01:05:28.025Z,43.75
2019-03-31T01:07:56.601Z,42.48
2019-03-31T01:10:25.049Z,43.55
2019-03-31T01:12:53.489Z,44.42
2019-03-31T01:15:23.240Z,42.10
2019-03-31T01:17:51.817Z,43.48
2019-03-31T01:20:21.551Z,43.13
2019-03-31T01:22:51.144Z,41.60
2019-03-31T01:25:20.448Z,43.98
2019-03-31T01:27:48.888Z,44.48
2019-03-31T01:30:18.477Z,43.80
2019-03-31T01:32:46.977Z,43.73
2019-03-31T01:35:16.289Z,43.50
2019-03-31T01:37:44.797Z,42.35
2019-03-31T01:40:13.297Z,42.45
2019-03-31T01:42:42.772Z,43.40
2019-03-31T01:45:11.344Z,40.80
2019-03-31T01:47:39.870Z,41.02
2019-03-31T01:50:09.900Z,39.95
2019-03-31T01:52:38.418Z,40.40
2019-03-31T01:55:07.958Z,41.02
2019-03-31T01:57:36.409Z,39.60
2019-03-31T02:00:08.029Z,38.60
2019-03-31T02:02:36.468Z,41.80
2019-03-31T02:05:06.077Z,38.88
2019-03-31T02:07:35.795Z,35.10
2019-03-31T02:10:05.983Z,36.93
2019-03-31T02:12:34.452Z,34.65
2019-03-31T02:15:04.907Z,37.10
2019-03-31T02:17:34.508Z,35.65
2019-03-31T02:20:03.327Z,33.78
2019-03-31T02:22:31.765Z,34.78
2019-03-31T02:25:00.427Z,32.35
2019-03-31T02:27:29.014Z,33.23
2019-03-31T02:29:57.450Z,31.00
2019-03-31T02:32:25.894Z,31.37
2019-03-31T02:34:54.339Z,30.95
2019-03-31T02:37:22.782Z,31.95
2019-03-31T02:39:51.232Z,31.33
2019-03-31T02:42:19.678Z,33.33
2019-03-31T02:44:48.108Z,30.30
2019-03-31T02:47:16.562Z,30.08
2019-03-31T02:49:44.998Z,28.70
2019-03-31T02:52:13.440Z,28.45
2019-03-31T02:54:42.861Z,29.45
2019-03-31T02:57:11.464Z,27.27
2019-03-31T02:59:41.673Z,27.48
2019-03-31T03:02:11.765Z,28.25
2019-03-31T03:04:40.992Z,28.27
2019-03-31T03:07:10.812Z,27.85
2019-03-31T03:09:39.319Z,28.23
2019-03-31T03:12:09.443Z,28.12
2019-03-31T03:14:37.939Z,26.70
2019-03-31T03:17:06.369Z,25.43
2019-03-31T03:19:34.821Z,26.00
2019-03-31T03:22:03.249Z,25.23
2019-03-31T03:24:31.690Z,25.12
2019-03-31T03:27:00.126Z,23.35
2019-03-31T03:29:28.580Z,23.70
2019-03-31T03:31:57.003Z,22.87
2019-03-31T03:34:26.533Z,22.95
2019-03-31T03:36:56.131Z,22.07
2019-03-31T03:39:24.642Z,24.35
2019-03-31T03:41:53.401Z,24.47
2019-03-31T03:44:21.837Z,22.90
2019-03-31T03:46:51.457Z,22.07
2019-03-31T03:49:20.022Z,23.67
2019-03-31T03:51:48.914Z,24.15
2019-03-31T03:54:17.369Z,25.00
2019-03-31T03:56:45.801Z,25.70
2019-03-31T03:59:14.267Z,26.07
2019-03-31T04:01:42.754Z,24.80
2019-03-31T04:04:11.338Z,25.52
2019-03-31T04:06:39.789Z,24.65
2019-03-31T04:09:08.213Z,25.27
2019-03-31T04:11:36.666Z,24.72
2019-03-31T04:14:05.104Z,25.35
2019-03-31T04:16:33.555Z,24.23
2019-03-31T04:19:01.983Z,23.18
2019-03-31T04:21:30.421Z,24.12
2019-03-31T04:23:58.870Z,25.05
2019-03-31T04:26:27.366Z,25.37
2019-03-31T04:28:55.826Z,23.70
2019-03-31T04:31:24.328Z,23.25
2019-03-31T04:33:53.221Z,23.15
2019-03-31T04:36:21.810Z,22.32
2019-03-31T04:38:50.305Z,21.73
2019-03-31T04:41:18.745Z,22.55
2019-03-31T04:43:47.252Z,22.02
2019-03-31T04:46:15.682Z,22.65
2019-03-31T04:48:44.261Z,22.20
2019-03-31T04:51:12.692Z,21.33
2019-03-31T04:53:41.133Z,20.82
2019-03-31T04:56:09.585Z,20.05
2019-03-31T04:58:38.033Z,20.08
2019-03-31T05:01:06.476Z,20.95
2019-03-31T05:03:34.921Z,19.65
2019-03-31T05:06:03.429Z,19.10
2019-03-31T05:08:31.877Z,17.37
2019-03-31T05:11:00.320Z,19.15
2019-03-31T05:13:28.751Z,18.10
2019-03-31T05:15:57.184Z,17.42
2019-03-31T05:18:25.627Z,17.40
2019-03-31T05:20:54.064Z,18.02
2019-03-31T05:23:22.505Z,16.35
2019-03-31T05:25:50.937Z,16.10
2019-03-31T05:28:19.377Z,17.55
2019-03-31T05:30:47.821Z,16.32
2019-03-31T05:33:16.245Z,14.55
2019-03-31T05:35:44.693Z,14.18
2019-03-31T05:38:13.125Z,15.78
2019-03-31T05:40:41.565Z,15.28
2019-03-31T05:43:10.010Z,16.23
2019-03-31T05:45:38.733Z,15.83
2019-03-31T05:48:07.183Z,15.98
2019-03-31T05:50:35.605Z,16.27
2019-03-31T05:53:05.113Z,16.15
2019-03-31T05:55:33.540Z,16.90
2019-03-31T05:58:01.984Z,16.30
2019-03-31T06:00:32.060Z,15.98
2019-03-31T06:03:00.493Z,15.13
2019-03-31T06:05:28.939Z,14.85
2019-03-31T06:07:57.368Z,14.60
2019-03-31T06:10:25.815Z,13.28
2019-03-31T06:12:54.313Z,15.08
2019-03-31T06:15:22.762Z,12.88
2019-03-31T06:17:51.208Z,13.13
2019-03-31T06:20:19.644Z,12.85
2019-03-31T06:22:48.092Z,12.73
2019-03-31T06:25:16.603Z,12.40
2019-03-31T06:27:45.067Z,12.20
2019-03-31T06:30:13.725Z,12.25
2019-03-31T06:32:42.185Z,13.05
2019-03-31T06:35:10.702Z,12.58
2019-03-31T06:37:39.164Z,12.93
2019-03-31T06:40:07.585Z,12.68
2019-03-31T06:42:36.050Z,11.97
2019-03-31T06:45:05.861Z,13.65
2019-03-31T06:47:34.305Z,13.98
2019-03-31T06:50:04.019Z,11.57
2019-03-31T06:52:32.459Z,13.58
2019-03-31T06:55:00.911Z,12.55
2019-03-31T06:57:29.354Z,13.53
2019-03-31T06:59:57.800Z,13.25
2019-03-31T07:02:26.237Z,13.43
2019-03-31T07:05:00.971Z,12.70
2019-03-31T07:07:24.839Z,12.73
2019-03-31T07:09:53.279Z,12.10
2019-03-31T07:12:21.713Z,13.08
2019-03-31T07:14:50.172Z,11.95
2019-03-31T07:17:18.614Z,11.60
2019-03-31T07:19:47.050Z,12.95
2019-03-31T07:22:15.494Z,12.45
2019-03-31T07:24:44.910Z,12.58
2019-03-31T07:27:13.342Z,12.35
2019-03-31T07:29:41.785Z,13.05
2019-03-31T07:32:10.238Z,13.20
2019-03-31T07:34:38.666Z,13.30
2019-03-31T07:37:07.110Z,11.75
2019-03-31T07:39:35.833Z,12.58
2019-03-31T07:42:04.707Z,11.43
2019-03-31T07:44:33.378Z,12.35
2019-03-31T07:47:01.805Z,13.38
2019-03-31T07:49:30.253Z,12.43
2019-03-31T07:51:58.700Z,11.97
2019-03-31T07:54:27.132Z,11.48
2019-03-31T07:56:55.586Z,11.60
2019-03-31T07:59:24.085Z,11.85
2019-03-31T08:01:52.767Z,10.65
2019-03-31T08:04:21.222Z,11.73
2019-03-31T08:06:49.652Z,11.90
2019-03-31T08:09:18.094Z,12.28
2019-03-31T08:11:46.532Z,11.38
2019-03-31T08:14:14.982Z,10.40
2019-03-31T08:16:43.417Z,10.28
2019-03-31T08:19:11.841Z,9.95
2019-03-31T08:21:40.273Z,9.30
2019-03-31T08:24:08.716Z,10.08
2019-03-31T08:26:37.152Z,8.90
2019-03-31T08:29:05.595Z,9.18
2019-03-31T08:31:34.030Z,9.40
2019-03-31T08:34:02.816Z,9.13
2019-03-31T08:36:31.260Z,9.48
2019-03-31T08:38:59.684Z,9.55
2019-03-31T08:41:28.161Z,9.35
2019-03-31T08:43:56.649Z,7.90
2019-03-31T08:46:25.072Z,7.75
2019-03-31T08:48:53.512Z,8.53
2019-03-31T08:51:21.930Z,8.98
2019-03-31T08:53:51.194Z,9.15
2019-03-31T08:56:19.627Z,9.43
2019-03-31T08:58:48.074Z,7.47
2019-03-31T09:01:18.162Z,6.83
2019-03-31T09:03:46.581Z,7.22
2019-03-31T09:06:15.028Z,6.42
2019-03-31T09:08:43.457Z,6.58
2019-03-31T09:11:11.894Z,6.45
2019-03-31T09:13:40.329Z,6.75
2019-03-31T09:16:08.767Z,6.03
2019-03-31T09:18:37.203Z,7.40
2019-03-31T09:21:05.658Z,6.55
2019-03-31T09:23:34.397Z,6.37
2019-03-31T09:26:02.847Z,6.12
2019-03-31T09:28:31.282Z,6.37
2019-03-31T09:30:59.710Z,5.55
2019-03-31T09:33:28.161Z,6.55
2019-03-31T09:35:56.649Z,5.55
2019-03-31T09:38:25.074Z,6.35
2019-03-31T09:40:53.517Z,5.40
2019-03-31T09:43:21.936Z,5.20
2019-03-31T09:45:50.374Z,4.28
2019-03-31T09:48:18.800Z,5.00
2019-03-31T09:50:47.294Z,4.15
2019-03-31T09:53:15.783Z,3.87
2019-03-31T09:55:44.216Z,4.10
2019-03-31T09:58:12.713Z,3.75
2019-03-31T10:00:44.717Z,3.90
2019-03-31T10:03:13.162Z,4.33
2019-03-31T10:05:41.581Z,3.40
2019-03-31T10:08:10.073Z,3.42
2019-03-31T10:10:39.852Z,3.15
2019-03-31T10:13:08.342Z,2.98
2019-03-31T10:15:36.821Z,3.45
2019-03-31T10:18:05.236Z,3.00
2019-03-31T10:20:33.657Z,3.33
2019-03-31T10:23:03.153Z,3.30
2019-03-31T10:25:31.580Z,3.42
2019-03-31T10:28:00.071Z,3.37
2019-03-31T10:30:38.052Z,3.17
2019-03-31T10:33:07.054Z,3.30
2019-03-31T10:35:35.863Z,3.20
2019-03-31T10:38:04.456Z,3.05
2019-03-31T10:40:32.882Z,2.70
2019-03-31T10:43:01.294Z,3.02
2019-03-31T10:45:30.868Z,2.95
2019-03-31T10:48:00.421Z,2.17
2019-03-31T10:50:28.912Z,2.60
2019-03-31T10:52:57.340Z,2.50
2019-03-31T10:55:25.777Z,2.42
2019-03-31T10:57:54.252Z,2.90
2019-03-31T11:00:33.088Z,2.77
2019-03-31T11:03:01.529Z,3.50
2019-03-31T11:05:29.940Z,2.10
2019-03-31T11:07:58.363Z,2.55
2019-03-31T11:10:26.781Z,2.20
2019-03-31T11:12:55.217Z,2.70
2019-03-31T11:15:23.641Z,2.72
2019-03-31T11:17:52.058Z,2.25
2019-03-31T11:20:20.484Z,2.27
2019-03-31T11:23:07.257Z,2.98
2019-03-31T11:25:35.701Z,2.70
2019-03-31T11:28:04.497Z,2.20
2019-03-31T11:30:32.912Z,2.47
2019-03-31T11:33:01.350Z,2.22
2019-03-31T11:35:29.779Z,2.52
2019-03-31T11:37:58.201Z,2.30
2019-03-31T11:40:26.634Z,2.58
2019-03-31T11:42:55.058Z,3.05
2019-03-31T11:45:23.484Z,2.10
2019-03-31T11:47:51.932Z,2.17
2019-03-31T11:50:20.521Z,2.10
2019-03-31T11:52:48.941Z,2.17
2019-03-31T11:55:17.376Z,2.25
2019-03-31T11:57:45.802Z,2.50
2019-03-31T12:00:16.022Z,2.37
2019-03-31T12:02:44.525Z,2.20
2019-03-31T12:05:13.517Z,1.90
2019-03-31T12:07:47.208Z,2.77
2019-03-31T12:10:12.116Z,2.20
2019-03-31T12:12:40.532Z,2.33
2019-03-31T12:15:09.534Z,2.95
2019-03-31T12:17:38.025Z,1.80
2019-03-31T12:20:07.234Z,2.02
2019-03-31T12:22:35.660Z,2.25
2019-03-31T12:25:05.146Z,1.98
2019-03-31T12:27:33.589Z,2.22
2019-03-31T12:30:02.006Z,2.02
2019-03-31T12:32:31.603Z,6.15
2019-03-31T13:13:24.104Z,3.20
2019-03-31T13:15:54.813Z,3.60
2019-03-31T13:19:17.526Z,2.70
2019-03-31T13:25:47.719Z,2.75
2019-03-31T13:30:22.067Z,2.90
2019-03-31T13:32:50.961Z,2.77
2019-03-31T13:35:19.388Z,2.60
2019-03-31T13:37:47.986Z,2.15
2019-03-31T13:40:16.479Z,2.02
2019-03-31T13:42:44.965Z,2.40
2019-03-31T13:48:28.420Z,2.83
2019-03-31T13:50:56.908Z,2.95
2019-03-31T13:53:25.397Z,2.50
2019-03-31T13:55:53.830Z,2.27
2019-03-31T13:58:23.926Z,2.37
2019-03-31T14:00:57.014Z,2.70
2019-03-31T14:03:24.632Z,3.42
2019-03-31T14:05:53.061Z,2.40
2019-03-31T14:08:26.071Z,2.58
2019-03-31T14:10:51.637Z,2.12
2019-03-31T14:13:20.085Z,2.42
2019-03-31T14:15:48.526Z,1.72
2019-03-31T14:18:16.945Z,2.08
2019-03-31T14:20:46.444Z,2.27
2019-03-31T14:23:14.864Z,2.37
2019-03-31T14:25:43.313Z,2.98
2019-03-31T14:28:11.979Z,2.40
2019-03-31T14:30:44.897Z,2.37
2019-03-31T14:33:13.318Z,2.45
2019-03-31T14:35:41.813Z,2.90
2019-03-31T14:38:10.245Z,2.62
2019-03-31T14:40:38.669Z,2.37
2019-03-31T14:43:07.101Z,2.90
2019-03-31T14:45:36.003Z,2.20
2019-03-31T14:48:04.606Z,2.52
2019-03-31T14:50:34.013Z,1.90
2019-03-31T14:53:02.436Z,1.80
2019-03-31T14:55:30.933Z,1.92
2019-03-31T14:57:59.435Z,1.70
2019-03-31T15:00:27.846Z,1.77
2019-03-31T15:02:56.283Z,2.17
2019-03-31T15:05:24.704Z,1.72
2019-03-31T15:07:53.133Z,1.60
2019-03-31T15:10:21.550Z,1.92
2019-03-31T15:12:49.974Z,2.25
2019-03-31T15:15:18.403Z,2.10
2019-03-31T15:17:48.085Z,1.75
2019-03-31T15:20:17.523Z,2.10
2019-03-31T15:22:46.005Z,2.77
2019-03-31T15:25:14.461Z,1.92
2019-03-31T15:27:43.113Z,2.20
2019-03-31T15:30:11.610Z,2.02
2019-03-31T15:32:40.033Z,1.80
2019-03-31T15:35:08.525Z,1.92
2019-03-31T15:37:36.944Z,1.90
2019-03-31T15:40:06.450Z,2.08
2019-03-31T15:42:34.878Z,1.92
2019-03-31T15:45:04.079Z,1.47
2019-03-31T15:47:32.520Z,1.77
2019-03-31T15:50:00.962Z,2.05
2019-03-31T15:52:29.389Z,2.25
2019-03-31T15:54:57.817Z,3.52
2019-03-31T15:57:26.322Z,1.82
2019-03-31T15:59:54.761Z,2.30
2019-03-31T16:02:26.239Z,3.00
2019-03-31T16:04:54.673Z,2.40
2019-03-31T16:07:23.084Z,5.40
2019-03-31T16:09:51.523Z,3.67
2019-03-31T16:12:19.953Z,4.03
2019-03-31T16:14:48.368Z,3.02
2019-03-31T16:17:16.800Z,3.30
2019-03-31T16:19:45.276Z,4.03
2019-03-31T16:22:13.729Z,2.90
2019-03-31T16:24:43.801Z,2.92
2019-03-31T16:27:12.224Z,2.60
2019-03-31T16:29:40.637Z,2.27
2019-03-31T16:32:09.222Z,2.92
2019-03-31T16:34:37.912Z,3.33
2019-03-31T16:37:06.596Z,2.85
2019-03-31T16:39:37.924Z,3.15
2019-03-31T16:42:06.311Z,2.40
2019-03-31T16:44:34.746Z,2.85
2019-03-31T16:47:03.289Z,2.90
2019-03-31T16:49:31.732Z,2.35
2019-03-31T16:52:00.583Z,2.35
2019-03-31T16:56:58.391Z,2.72
2019-03-31T16:59:20.193Z,2.62
2019-03-31T17:01:48.622Z,2.90
2019-03-31T17:04:19.318Z,2.58
2019-03-31T17:09:19.661Z,2.10
2019-03-31T17:11:48.157Z,2.50
2019-03-31T17:14:16.861Z,2.40
2019-03-31T17:16:46.821Z,2.33
2019-03-31T17:19:15.653Z,2.85
2019-03-31T17:21:44.082Z,2.58
2019-03-31T17:24:12.546Z,2.72
2019-03-31T17:26:40.980Z,2.37
2019-03-31T17:29:09.517Z,2.15
2019-03-31T17:31:37.950Z,2.62
2019-03-31T17:34:06.453Z,2.80
2019-03-31T17:36:34.882Z,2.50
2019-03-31T17:39:05.538Z,2.58
2019-03-31T17:41:35.161Z,2.40
2019-03-31T17:44:03.593Z,2.80
2019-03-31T17:46:32.016Z,2.85
2019-03-31T17:49:00.848Z,2.40
2019-03-31T17:51:30.587Z,2.42
2019-03-31T17:53:58.962Z,2.62
2019-03-31T17:56:27.393Z,3.12
2019-03-31T17:58:55.820Z,2.80
2019-03-31T18:01:26.217Z,2.95
2019-03-31T18:03:56.356Z,2.95
2019-03-31T18:06:26.859Z,2.37
2019-03-31T18:08:55.972Z,2.40
2019-03-31T18:11:24.544Z,2.58
2019-03-31T18:13:53.039Z,2.62
2019-03-31T18:16:21.461Z,2.83
2019-03-31T18:18:49.954Z,3.80
2019-03-31T18:21:18.463Z,3.67
2019-03-31T18:23:48.641Z,3.47
2019-03-31T18:26:17.079Z,3.95
2019-03-31T18:28:45.497Z,3.77
2019-03-31T18:31:13.920Z,4.20
2019-03-31T18:33:42.348Z,4.15
2019-03-31T18:36:10.798Z,4.15
2019-03-31T18:38:39.205Z,3.77
2019-03-31T18:41:07.624Z,4.08
2019-03-31T18:43:50.248Z,3.62
2019-03-31T18:46:07.209Z,3.55
2019-03-31T18:48:35.710Z,3.87
2019-03-31T18:51:04.160Z,3.87
2019-03-31T18:53:40.130Z,3.60
2019-03-31T18:56:10.210Z,3.85
2019-03-31T18:58:55.206Z,3.77
2019-03-31T19:01:31.530Z,3.85
2019-03-31T19:04:01.615Z,3.27
2019-03-31T19:06:40.802Z,3.42
2019-03-31T19:09:10.954Z,3.80
2019-03-31T19:11:41.215Z,4.28
2019-03-31T19:14:23.618Z,4.03
2019-03-31T19:17:10.149Z,3.65
2019-03-31T19:19:40.198Z,3.05
2019-03-31T19:22:25.210Z,3.67
2019-03-31T19:25:06.886Z,3.15
2019-03-31T19:27:44.329Z,3.45
2019-03-31T19:30:30.740Z,2.87
2019-03-31T19:33:17.089Z,3.22
2019-03-31T19:36:03.645Z,3.75
2019-03-31T19:38:50.184Z,3.50
2019-03-31T19:41:32.341Z,2.75
2019-03-31T19:44:14.674Z,2.92
2019-03-31T19:46:44.809Z,2.65
2019-03-31T19:49:17.836Z,2.75
2019-03-31T19:52:06.681Z,3.20
